Oakdale, LA

7:24 AM CDT on May 28, 2017 (GMT -0500)
Oakdale

Weather History for KACP - February, 2014

Change the Weather History Date:

Friday, February 28, 2014

  Actual Average (KPOE) Record (KPOE)
Temperature  
Mean Temperature 46 °F -  
Max Temperature 59 °F 62 °F 79 °F (2017)
Min Temperature 32 °F 43 °F 23 °F (2002)
Degree Days  
Heating Degree Days 20    
Moisture  
Dew Point 44 °F    
Average Humidity 86    
Maximum Humidity 99    
Minimum Humidity 63    
Precipitation  
Precipitation 0.00 in - - ()
Sea Level Pressure  
Sea Level Pressure 29.98 in    
Wind  
Wind Speed 2 mph (SSE)    
Max Wind Speed 12 mph    
Max Gust Speed 20 mph    
Visibility 9 miles    
Events      
Averages and records for this station are not official NWS values.
T = Trace of Precipitation, MM = Missing Value Source: NWS Daily Summary

Daily Weather History Graph

Daily Weather History Graph

Search for Another Location

Airport or City:

Trip Planner

Search our weather history database for the weather conditions in past years. The results will help you decide how hot, cold, wet, or windy it might be!

Date:

Astronomy

Feb. 28, 2014 Rise Set
Actual Time 6:38 AM CST 6:08 PM CST
Civil Twilight 6:14 AM CST 6:32 PM CST
Nautical Twilight 5:46 AM CST 7:00 PM CST
Astronomical Twilight 5:18 AM CST 7:28 PM CST
Moon 5:52 AM CST 5:45 PM CST
Length of Visible Light 12h 18m
Length of Day
11h 30m
Waning Crescent, 1% of the Moon is Illuminated
Feb 28
Waning Crescent
Mar 1
New
Mar 8
First Quarter
Mar 16
Full
Mar 23
Last Quarter

Hourly Weather History & Observations

Time (CST) Temp. Dew Point Humidity Pressure Visibility Wind Dir Wind Speed Gust Speed Precip Events Conditions
12:15 AM 32.9 °F 32.0 °F 96% 30.02 in 10.0 mi Calm Calm - N/A   Clear
12:35 AM 32.9 °F 32.0 °F 96% 30.01 in 10.0 mi Calm Calm - N/A   Clear
12:55 AM 34.0 °F 32.9 °F 96% 30.01 in 10.0 mi Calm Calm - N/A   Clear
1:15 AM 34.7 °F 33.8 °F 97% 30.01 in 10.0 mi Calm Calm - N/A   Clear
1:35 AM 34.9 °F 33.8 °F 96% 30.00 in 10.0 mi Calm Calm - N/A   Clear
1:55 AM 34.2 °F 33.1 °F 96% 29.99 in 10.0 mi Calm Calm - N/A   Clear
2:15 AM 34.5 °F 33.4 °F 96% 29.99 in 10.0 mi Calm Calm - N/A   Clear
2:35 AM 35.1 °F 33.8 °F 95% 29.99 in 10.0 mi Calm Calm - N/A   Clear
2:55 AM 35.1 °F 34.0 °F 96% 30.00 in 7.0 mi Calm Calm - N/A   Clear
3:15 AM 34.5 °F 33.3 °F 95% 30.00 in 7.0 mi Calm Calm - N/A   Clear
3:35 AM 34.0 °F 32.9 °F 96% 30.00 in 7.0 mi Calm Calm - N/A   Clear
3:55 AM 32.9 °F 32.0 °F 96% 30.00 in 7.0 mi Calm Calm - N/A   Clear
4:15 AM 32.4 °F 32.0 °F 99% 30.00 in 7.0 mi Calm Calm - N/A   Clear
4:35 AM 33.1 °F 32.2 °F 96% 30.00 in 7.0 mi Calm Calm - N/A   Clear
4:55 AM 32.9 °F 32.0 °F 96% 30.01 in 7.0 mi Calm Calm - N/A   Clear
5:15 AM 32.4 °F 32.0 °F 99% 30.01 in 5.0 mi Calm Calm - N/A   Clear
5:35 AM 32.0 °F 31.1 °F 96% 30.01 in 7.0 mi Calm Calm - N/A   Clear
5:55 AM 32.0 °F 31.5 °F 98% 30.01 in 7.0 mi Calm Calm - N/A   Clear
6:15 AM 32.0 °F 31.1 °F 96% 30.01 in 7.0 mi Calm Calm - N/A   Clear
6:35 AM 32.4 °F 31.8 °F 98% 30.01 in 10.0 mi Calm Calm - N/A   Clear
6:55 AM 32.0 °F 31.5 °F 98% 30.01 in 5.0 mi Calm Calm - N/A   Clear
7:15 AM 33.1 °F 32.0 °F 96% 30.01 in 7.0 mi Calm Calm - N/A   Clear
7:35 AM 36.7 °F 35.4 °F 95% 30.01 in 7.0 mi Calm Calm - N/A   Clear
7:55 AM 40.5 °F 39.0 °F 95% 30.01 in 10.0 mi Calm Calm - N/A   Scattered Clouds
8:15 AM 43.3 °F 40.3 °F 89% 30.03 in 10.0 mi Calm Calm - N/A   Overcast
8:35 AM 45.3 °F 41.4 °F 86% 30.02 in 10.0 mi Calm Calm - N/A   Overcast
8:55 AM 48.0 °F 40.8 °F 76% 30.02 in 10.0 mi SE 4.6 mph - N/A   Overcast
9:15 AM 50.0 °F 40.8 °F 71% 30.02 in 10.0 mi SSE 6.9 mph - N/A   Overcast
9:30 AM 51.8 °F 40.6 °F 66% 30.02 in 10.0 mi SSE 5.8 mph - N/A   Overcast
9:55 AM 54.1 °F 41.9 °F 63% 30.03 in 10.0 mi SE 6.9 mph - N/A   Mostly Cloudy
10:15 AM 54.5 °F 42.8 °F 65% 30.03 in 10.0 mi SSE 10.4 mph 17.3 mph N/A   Overcast
10:35 AM 56.3 °F 43.7 °F 63% 30.03 in 10.0 mi SSE 8.1 mph - N/A   Overcast
10:55 AM 56.8 °F 44.2 °F 63% 30.02 in 10.0 mi SE 5.8 mph - N/A   Overcast
11:15 AM 57.9 °F 45.5 °F 63% 30.02 in 10.0 mi SE 9.2 mph - N/A   Overcast
11:35 AM 58.1 °F 45.9 °F 64% 30.01 in 10.0 mi SSE 6.9 mph - N/A   Overcast
11:55 AM 58.6 °F 46.8 °F 65% 29.99 in 10.0 mi SSE 6.9 mph 17.3 mph N/A   Overcast
12:15 PM 58.6 °F 46.9 °F 65% 29.99 in 10.0 mi SE 11.5 mph 16.1 mph N/A   Overcast
12:35 PM 57.7 °F 46.8 °F 67% 29.99 in 10.0 mi SSE 10.4 mph - N/A   Overcast
12:55 PM 58.1 °F 47.5 °F 68% 29.97 in 10.0 mi SSE 6.9 mph 17.3 mph N/A   Overcast
1:15 PM 58.5 °F 47.8 °F 68% 29.95 in 10.0 mi SE 11.5 mph 19.6 mph N/A   Overcast
1:35 PM 58.6 °F 48.4 °F 69% 29.93 in 10.0 mi SSE 11.5 mph 18.4 mph N/A   Overcast
1:55 PM 59.0 °F 48.7 °F 69% 29.93 in 10.0 mi SSE 10.4 mph 18.4 mph N/A   Overcast
2:10 PM 58.5 °F 49.1 °F 71% 29.92 in 10.0 mi SSE 9.2 mph 18.4 mph N/A   Overcast
2:35 PM 58.6 °F 49.6 °F 72% 29.92 in 10.0 mi SSE 5.8 mph - N/A   Overcast
2:55 PM 58.3 °F 50.0 °F 74% 29.92 in 10.0 mi SE 5.8 mph - N/A   Overcast
3:15 PM 58.1 °F 50.2 °F 75% 29.92 in 10.0 mi SE 10.4 mph 16.1 mph N/A   Overcast
3:35 PM 57.7 °F 50.5 °F 77% 29.93 in 10.0 mi SE 5.8 mph - N/A   Overcast
3:55 PM 57.2 °F 51.1 °F 80% 29.94 in 7.0 mi SE 3.5 mph - N/A   Overcast
4:15 PM 56.3 °F 52.0 °F 85% 29.93 in 7.0 mi Calm Calm - N/A   Light Drizzle
4:35 PM 55.4 °F 53.1 °F 92% 29.94 in 3.0 mi Calm Calm - N/A   Drizzle
4:55 PM 55.4 °F 53.2 °F 92% 29.94 in 2.5 mi Calm Calm - N/A   Drizzle
5:15 PM 54.9 °F 53.4 °F 95% 29.94 in 2.5 mi Calm Calm - N/A   Drizzle
5:35 PM 54.9 °F 53.6 °F 96% 29.93 in 2.5 mi Calm Calm - N/A   Light Drizzle
5:55 PM 54.9 °F 53.6 °F 96% 29.93 in 3.0 mi Calm Calm - N/A   Overcast
6:15 PM 55.0 °F 53.6 °F 95% 29.92 in 4.0 mi SSE 4.6 mph - N/A   Overcast
6:35 PM 55.4 °F 53.6 °F 94% 29.91 in 7.0 mi SE 5.8 mph - N/A   Overcast
6:55 PM 55.4 °F 53.6 °F 94% 29.91 in 10.0 mi SE 6.9 mph - N/A   Overcast
7:15 PM 55.6 °F 53.6 °F 93% 29.92 in 10.0 mi SSE 5.8 mph - N/A   Overcast
7:35 PM 55.9 °F 53.6 °F 92% 29.93 in 10.0 mi SE 3.5 mph - N/A   Overcast
7:55 PM 55.9 °F 53.6 °F 92% 29.94 in 10.0 mi Calm Calm - N/A   Overcast
8:15 PM 56.1 °F 53.8 °F 92% 29.95 in 10.0 mi Calm Calm - N/A   Overcast
8:35 PM 56.3 °F 53.8 °F 91% 29.96 in 10.0 mi SSE 3.5 mph - N/A   Overcast
8:55 PM 56.7 °F 54.0 °F 91% 29.96 in 10.0 mi Calm Calm - N/A   Overcast
9:15 PM 57.2 °F 54.3 °F 90% 29.96 in 10.0 mi SSE 4.6 mph - N/A   Overcast
9:35 PM 57.4 °F 54.5 °F 90% 29.97 in 10.0 mi South 3.5 mph - N/A   Overcast
9:55 PM 57.6 °F 54.5 °F 90% 29.98 in 10.0 mi Calm Calm - N/A   Overcast
10:15 PM 57.7 °F 54.5 °F 89% 29.98 in 10.0 mi SSE 3.5 mph - N/A   Overcast
10:35 PM 58.1 °F 54.7 °F 88% 29.99 in 10.0 mi Calm Calm - N/A   Overcast
10:55 PM 58.3 °F 54.7 °F 88% 29.99 in 10.0 mi Calm Calm - N/A   Overcast
11:15 PM 58.1 °F 55.0 °F 90% 29.99 in 10.0 mi Calm Calm - N/A   Overcast
11:35 PM 58.3 °F 54.9 °F 88% 29.99 in 10.0 mi Calm Calm - N/A   Overcast
11:55 PM 58.1 °F 55.0 °F 90% 29.99 in 10.0 mi Calm Calm - N/A   Overcast